createdAt,value
2019-02-22T00:00:43.913Z,10.90
2019-02-22T00:03:12.328Z,10.90
2019-02-22T00:05:40.819Z,10.90
2019-02-22T00:08:09.547Z,10.90
2019-02-22T00:10:38.244Z,10.80
2019-02-22T00:13:06.948Z,10.90
2019-02-22T00:15:36.417Z,10.70
2019-02-22T00:18:05.263Z,10.70
2019-02-22T00:20:33.969Z,10.80
2019-02-22T00:23:02.390Z,10.80
2019-02-22T00:25:31.163Z,10.70
2019-02-22T00:27:59.873Z,10.70
2019-02-22T00:30:28.301Z,10.70
2019-02-22T00:32:57.047Z,10.80
2019-02-22T00:35:25.614Z,10.80
2019-02-22T00:37:54.085Z,10.80
2019-02-22T00:40:22.519Z,10.80
2019-02-22T00:42:50.927Z,10.80
2019-02-22T00:45:19.629Z,10.70
2019-02-22T00:47:48.089Z,10.70
2019-02-22T00:50:16.494Z,10.70
2019-02-22T00:52:44.899Z,10.60
2019-02-22T00:55:13.369Z,10.70
2019-02-22T00:57:41.771Z,10.80
2019-02-22T01:00:10.695Z,10.80
2019-02-22T01:02:39.380Z,10.80
2019-02-22T01:05:07.874Z,10.80
2019-02-22T01:07:36.300Z,10.80
2019-02-22T01:10:06.192Z,10.90
2019-02-22T01:12:34.906Z,10.90
2019-02-22T01:15:03.685Z,10.70
2019-02-22T01:17:32.121Z,10.80
2019-02-22T01:20:00.718Z,10.80
2019-02-22T01:22:29.375Z,10.80
2019-02-22T01:24:57.817Z,10.80
2019-02-22T01:27:26.580Z,10.90
2019-02-22T01:29:55.034Z,10.80
2019-02-22T01:32:23.437Z,10.70
2019-02-22T01:34:51.918Z,10.70
2019-02-22T01:37:20.437Z,10.80
2019-02-22T01:39:48.853Z,10.80
2019-02-22T01:42:17.299Z,10.80
2019-02-22T01:44:46.035Z,10.80
2019-02-22T01:47:14.731Z,10.80
2019-02-22T01:49:43.170Z,10.90
2019-02-22T01:52:11.566Z,11.00
2019-02-22T01:54:40.037Z,11.10
2019-02-22T01:57:08.443Z,11.20
2019-02-22T01:59:36.888Z,11.30
2019-02-22T02:02:05.891Z,11.40
2019-02-22T02:04:34.598Z,11.40
2019-02-22T02:07:03.073Z,11.40
2019-02-22T02:09:31.491Z,11.50
2019-02-22T02:12:01.822Z,11.40
2019-02-22T02:14:30.409Z,11.30
2019-02-22T02:16:59.101Z,11.30
2019-02-22T02:19:27.531Z,11.20
2019-02-22T02:21:56.249Z,11.20
2019-02-22T02:24:24.657Z,11.20
2019-02-22T02:26:53.073Z,11.20
2019-02-22T02:29:21.495Z,11.20
2019-02-22T02:31:49.904Z,11.20
2019-02-22T02:34:18.360Z,11.30
2019-02-22T02:36:47.072Z,11.20
2019-02-22T02:39:15.517Z,11.20
2019-02-22T02:41:44.253Z,11.20
2019-02-22T02:44:12.671Z,11.20
2019-02-22T02:46:41.452Z,11.20
2019-02-22T02:49:09.870Z,11.30
2019-02-22T02:51:38.294Z,11.30
2019-02-22T02:54:07.021Z,11.30
2019-02-22T02:56:35.454Z,11.30
2019-02-22T02:59:03.941Z,11.40
2019-02-22T03:01:32.354Z,11.40
2019-02-22T03:04:01.102Z,11.50
2019-02-22T03:06:31.429Z,11.50
2019-02-22T03:08:59.865Z,11.60
2019-02-22T03:11:28.381Z,11.60
2019-02-22T03:13:56.827Z,11.70
2019-02-22T03:16:25.240Z,11.70
2019-02-22T03:18:53.667Z,11.70
2019-02-22T03:21:22.094Z,11.80
2019-02-22T03:23:50.526Z,11.80
2019-02-22T03:26:18.937Z,11.70
2019-02-22T03:28:47.350Z,11.70
2019-02-22T03:31:15.796Z,11.80
2019-02-22T03:33:44.270Z,11.80
2019-02-22T03:36:13.079Z,11.70
2019-02-22T03:38:41.554Z,11.60
2019-02-22T03:41:09.950Z,11.70
2019-02-22T03:43:38.385Z,11.70
2019-02-22T03:46:07.137Z,11.70
2019-02-22T03:48:35.584Z,11.70
2019-02-22T03:51:03.983Z,11.80
2019-02-22T03:53:34.061Z,11.70
2019-02-22T03:56:02.958Z,11.70
2019-02-22T03:58:31.385Z,11.60
2019-02-22T04:00:59.817Z,11.60
2019-02-22T04:03:28.364Z,11.60
2019-02-22T04:05:56.774Z,11.60
2019-02-22T04:08:25.529Z,11.60
2019-02-22T04:10:53.935Z,11.60
2019-02-22T04:13:22.370Z,11.50
2019-02-22T04:15:50.787Z,11.60
2019-02-22T04:18:19.191Z,11.60
2019-02-22T04:20:47.896Z,11.60
2019-02-22T04:23:16.594Z,11.60
2019-02-22T04:25:45.012Z,11.60
2019-02-22T04:28:13.518Z,11.70
2019-02-22T04:30:42.039Z,11.70
2019-02-22T04:33:10.505Z,11.60
2019-02-22T04:35:39.273Z,11.40
2019-02-22T04:38:07.708Z,11.40
2019-02-22T04:40:36.149Z,11.40
2019-02-22T04:43:04.568Z,11.30
2019-02-22T04:45:32.994Z,11.20
2019-02-22T04:48:01.419Z,11.10
2019-02-22T04:50:30.126Z,11.20
2019-02-22T04:52:58.557Z,11.20
2019-02-22T04:55:29.307Z,11.20
2019-02-22T04:57:57.219Z,11.10
2019-02-22T05:00:25.698Z,11.10
2019-02-22T05:02:54.133Z,11.20
2019-02-22T05:05:22.630Z,11.10
2019-02-22T05:07:51.058Z,11.10
2019-02-22T05:10:19.515Z,11.20
2019-02-22T05:12:47.940Z,11.30
2019-02-22T05:15:16.353Z,11.30
2019-02-22T05:17:44.773Z,11.30
2019-02-22T05:20:13.213Z,11.20
2019-02-22T05:22:41.625Z,11.10
2019-02-22T05:25:10.069Z,11.20
2019-02-22T05:27:38.495Z,11.30
2019-02-22T05:30:08.261Z,11.30
2019-02-22T05:32:36.663Z,11.40
2019-02-22T05:35:05.207Z,11.40
2019-02-22T05:37:33.646Z,11.50
2019-02-22T05:40:02.356Z,11.50
2019-02-22T05:42:30.773Z,11.60
2019-02-22T05:44:59.202Z,11.60
2019-02-22T05:47:27.625Z,11.60
2019-02-22T05:49:56.089Z,11.60
2019-02-22T05:52:24.490Z,11.60
2019-02-22T05:54:53.201Z,11.70
2019-02-22T05:57:21.646Z,11.70
2019-02-22T05:59:50.062Z,11.70
2019-02-22T06:02:18.779Z,11.70
2019-02-22T06:04:47.491Z,11.70
2019-02-22T06:07:16.290Z,11.80
2019-02-22T06:09:44.710Z,11.80
2019-02-22T06:12:13.152Z,11.80
2019-02-22T06:14:41.563Z,11.80
2019-02-22T06:17:14.506Z,11.80
2019-02-22T06:19:40.175Z,11.80
2019-02-22T06:22:08.891Z,11.90
2019-02-22T06:24:37.346Z,11.90
2019-02-22T06:27:05.807Z,11.90
2019-02-22T06:29:34.214Z,11.90
2019-02-22T06:32:02.649Z,11.90
2019-02-22T06:34:31.351Z,11.90
2019-02-22T06:37:02.167Z,11.90
2019-02-22T06:39:29.934Z,11.90
2019-02-22T06:41:58.678Z,11.90
2019-02-22T06:44:27.093Z,11.90
2019-02-22T06:46:55.507Z,11.90
2019-02-22T06:49:24.024Z,12.00
2019-02-22T06:51:52.749Z,12.00
2019-02-22T06:54:21.235Z,12.00
2019-02-22T06:56:49.953Z,11.90
2019-02-22T06:59:18.376Z,11.90
2019-02-22T07:01:49.712Z,11.90
2019-02-22T07:04:16.935Z,11.90
2019-02-22T07:06:45.361Z,11.90
2019-02-22T07:09:13.788Z,11.90
2019-02-22T07:11:56.172Z,11.90
2019-02-22T07:14:24.592Z,11.90
2019-02-22T07:16:53.018Z,11.90
2019-02-22T07:19:21.751Z,11.90
2019-02-22T07:21:52.996Z,12.00
2019-02-22T07:24:20.292Z,12.00
2019-02-22T07:26:48.978Z,12.00
2019-02-22T07:29:17.678Z,12.00
2019-02-22T07:31:46.098Z,12.00
2019-02-22T07:34:14.870Z,12.00
2019-02-22T07:36:43.306Z,12.10
2019-02-22T07:39:11.747Z,12.10
2019-02-22T07:41:40.160Z,12.10
2019-02-22T07:44:08.844Z,12.10
2019-02-22T07:46:37.563Z,12.10
2019-02-22T07:49:06.335Z,12.20
2019-02-22T07:51:35.028Z,12.30
2019-02-22T07:54:03.463Z,12.20
2019-02-22T07:56:31.858Z,12.20
2019-02-22T07:59:03.027Z,12.20
2019-02-22T08:01:30.741Z,12.30
2019-02-22T08:03:59.155Z,12.30
2019-02-22T08:06:27.599Z,12.40
2019-02-22T08:08:56.000Z,12.30
2019-02-22T08:11:24.437Z,12.30
2019-02-22T08:13:52.861Z,12.30
2019-02-22T08:16:21.289Z,12.20
2019-02-22T08:19:00.666Z,12.10
2019-02-22T08:21:20.445Z,12.30
2019-02-22T08:23:48.847Z,12.30
2019-02-22T08:26:17.559Z,12.10
2019-02-22T08:28:45.959Z,12.20
2019-02-22T08:31:14.366Z,12.30
2019-02-22T08:33:42.791Z,12.50
2019-02-22T08:36:11.230Z,12.60
2019-02-22T08:38:39.691Z,12.50
2019-02-22T08:41:08.091Z,12.60
2019-02-22T08:43:36.515Z,12.60
2019-02-22T08:46:04.946Z,12.60
2019-02-22T08:48:33.359Z,12.60
2019-02-22T08:51:02.076Z,12.70
2019-02-22T08:53:30.866Z,12.70
2019-02-22T08:55:59.574Z,12.30
2019-02-22T08:58:27.981Z,12.50
2019-02-22T09:00:56.430Z,12.50
2019-02-22T09:03:24.840Z,12.50
2019-02-22T09:05:53.259Z,12.50
2019-02-22T09:08:21.663Z,12.60
2019-02-22T09:11:00.223Z,12.60
2019-02-22T09:13:20.562Z,12.70
2019-02-22T09:15:48.963Z,12.90
2019-02-22T09:18:17.416Z,12.80
2019-02-22T09:20:45.830Z,12.80
2019-02-22T09:23:14.262Z,13.00
2019-02-22T09:25:42.723Z,13.10
2019-02-22T09:28:11.407Z,13.10
2019-02-22T09:30:39.822Z,13.20
2019-02-22T09:33:08.236Z,13.30
2019-02-22T09:35:36.934Z,13.40
2019-02-22T09:38:05.524Z,13.50
2019-02-22T09:40:33.935Z,13.60
2019-02-22T09:43:02.671Z,13.60
2019-02-22T09:45:31.101Z,13.70
2019-02-22T09:47:59.528Z,13.80
2019-02-22T09:50:28.251Z,13.90
2019-02-22T09:52:56.686Z,13.80
2019-02-22T09:55:25.094Z,13.90
2019-02-22T09:57:53.838Z,14.00
2019-02-22T10:00:22.540Z,14.00
2019-02-22T10:02:51.241Z,14.10
2019-02-22T10:05:19.667Z,14.20
2019-02-22T10:07:48.332Z,14.30
2019-02-22T10:10:16.742Z,14.30
2019-02-22T10:12:45.181Z,14.30
2019-02-22T10:15:13.605Z,14.50
2019-02-22T10:17:42.301Z,14.60
2019-02-22T10:20:10.893Z,14.50
2019-02-22T10:22:39.360Z,14.70
2019-02-22T10:25:08.213Z,14.90
2019-02-22T10:27:36.637Z,14.90
2019-02-22T10:30:10.630Z,15.10
2019-02-22T10:32:39.056Z,15.10
2019-02-22T10:35:08.007Z,15.20
2019-02-22T10:37:36.443Z,15.20
2019-02-22T10:40:09.617Z,15.10
2019-02-22T10:42:38.443Z,15.20
2019-02-22T10:45:09.464Z,15.40
2019-02-22T10:47:37.906Z,15.20
2019-02-22T10:50:08.369Z,15.30
2019-02-22T10:52:36.773Z,15.40
2019-02-22T10:55:08.114Z,15.50
2019-02-22T10:57:36.843Z,15.60
2019-02-22T11:00:09.150Z,15.90
2019-02-22T11:02:37.606Z,16.20
2019-02-22T11:05:06.087Z,16.30
2019-02-22T11:07:37.031Z,16.50
2019-02-22T11:10:07.940Z,16.60
2019-02-22T11:12:36.375Z,16.60
2019-02-22T11:15:07.419Z,16.60
2019-02-22T11:17:35.840Z,16.60
2019-02-22T11:20:06.391Z,16.80
2019-02-22T11:22:34.813Z,16.80
2019-02-22T11:25:03.698Z,16.80
2019-02-22T11:27:32.140Z,16.90
2019-02-22T11:30:00.889Z,16.90
2019-02-22T11:32:29.393Z,16.70
2019-02-22T11:34:58.066Z,16.50
2019-02-22T11:37:26.769Z,16.60
2019-02-22T11:39:55.470Z,16.60
2019-02-22T11:42:23.903Z,16.60
2019-02-22T11:44:52.308Z,16.60
2019-02-22T11:47:21.066Z,16.80
2019-02-22T11:49:49.463Z,16.80
2019-02-22T11:52:17.904Z,16.70
2019-02-22T11:54:46.329Z,16.60
2019-02-22T11:57:15.046Z,16.60
2019-02-22T11:59:43.490Z,16.80
2019-02-22T12:02:12.228Z,16.90
2019-02-22T12:04:40.643Z,17.00
2019-02-22T12:07:09.071Z,17.00
2019-02-22T12:09:37.519Z,17.40
2019-02-22T12:12:06.287Z,17.80
2019-02-22T12:14:34.953Z,18.20
2019-02-22T12:17:03.695Z,18.50
2019-02-22T12:19:32.109Z,18.60
2019-02-22T12:22:00.536Z,18.60
2019-02-22T12:24:28.959Z,18.40
2019-02-22T12:26:57.401Z,18.30
2019-02-22T12:29:26.151Z,18.20
2019-02-22T12:31:54.592Z,18.10
2019-02-22T12:34:23.016Z,17.90
2019-02-22T12:36:51.745Z,17.80
2019-02-22T12:39:20.255Z,17.50
2019-02-22T12:41:48.719Z,17.40
2019-02-22T12:44:17.127Z,17.30
2019-02-22T12:46:45.544Z,17.20
2019-02-22T12:49:13.949Z,17.00
2019-02-22T12:51:42.728Z,17.00
2019-02-22T12:54:11.122Z,17.20
2019-02-22T12:56:57.461Z,17.30
2019-02-22T12:59:10.339Z,17.30
2019-02-22T13:01:39.035Z,17.10
2019-02-22T13:04:07.741Z,17.00
2019-02-22T13:06:36.151Z,16.60
2019-02-22T13:09:05.217Z,16.40
2019-02-22T13:11:33.932Z,16.30
2019-02-22T13:14:02.335Z,16.20
2019-02-22T13:16:31.014Z,16.10
2019-02-22T13:18:59.457Z,16.10
2019-02-22T13:21:27.881Z,16.10
2019-02-22T13:23:57.312Z,16.00
2019-02-22T13:26:26.234Z,15.90
2019-02-22T13:28:54.943Z,15.90
2019-02-22T13:31:30.024Z,15.80
2019-02-22T13:33:53.768Z,15.70
2019-02-22T13:36:22.202Z,15.60
2019-02-22T13:38:50.702Z,15.40
2019-02-22T13:41:19.139Z,15.10
2019-02-22T13:43:47.942Z,15.00
2019-02-22T13:46:16.831Z,14.90
2019-02-22T13:48:45.278Z,14.80
2019-02-22T13:51:13.797Z,14.80
2019-02-22T13:53:42.529Z,14.80
2019-02-22T13:56:10.935Z,14.90
2019-02-22T13:58:39.619Z,14.80
2019-02-22T14:01:08.066Z,14.90
2019-02-22T14:03:36.476Z,15.00
2019-02-22T14:06:04.915Z,15.00
2019-02-22T14:08:33.336Z,15.00
2019-02-22T14:11:02.095Z,15.00
2019-02-22T14:13:30.771Z,15.10
2019-02-22T14:15:59.201Z,15.10
2019-02-22T14:18:27.682Z,15.10
2019-02-22T14:20:56.358Z,15.10
2019-02-22T14:23:24.810Z,15.20
2019-02-22T14:25:53.486Z,15.10
2019-02-22T14:28:22.021Z,15.00
2019-02-22T14:30:50.435Z,14.90
2019-02-22T14:33:18.862Z,14.80
2019-02-22T14:35:47.627Z,14.80
2019-02-22T14:38:16.067Z,14.70
2019-02-22T14:40:44.490Z,14.70
2019-02-22T14:43:16.553Z,14.60
2019-02-22T14:45:50.462Z,14.50
2019-02-22T14:48:13.198Z,14.40
2019-02-22T14:50:41.610Z,14.20
2019-02-22T14:53:19.064Z,14.00
2019-02-22T14:55:40.815Z,14.00
2019-02-22T14:58:09.243Z,14.00
2019-02-22T15:00:37.669Z,13.90
2019-02-22T15:03:06.403Z,14.00
2019-02-22T15:05:34.817Z,14.10
2019-02-22T15:08:03.222Z,14.10
2019-02-22T15:10:31.726Z,14.00
2019-02-22T15:13:00.458Z,14.00
2019-02-22T15:15:33.306Z,14.00
2019-02-22T15:18:03.368Z,14.10
2019-02-22T15:20:32.108Z,14.10
2019-02-22T15:23:02.565Z,14.20
2019-02-22T15:25:30.932Z,14.20
2019-02-22T15:27:59.620Z,14.30
2019-02-22T15:30:28.100Z,14.30
2019-02-22T15:32:56.546Z,14.10
2019-02-22T15:35:24.969Z,14.00
2019-02-22T15:37:53.371Z,13.90
2019-02-22T15:40:22.179Z,13.80
2019-02-22T15:42:50.601Z,13.80
2019-02-22T15:45:19.505Z,13.80
2019-02-22T15:47:49.066Z,13.60
2019-02-22T15:50:18.907Z,13.60
2019-02-22T15:52:48.748Z,13.60
2019-02-22T15:55:17.182Z,13.60
2019-02-22T15:57:45.594Z,13.40
2019-02-22T16:00:19.804Z,13.40
2019-02-22T16:02:48.304Z,13.50
2019-02-22T16:05:21.103Z,13.50
2019-02-22T16:07:49.528Z,13.60
2019-02-22T16:10:17.960Z,13.60
2019-02-22T16:12:46.385Z,13.60
2019-02-22T16:15:16.057Z,13.60
2019-02-22T16:17:44.484Z,13.70
2019-02-22T16:20:13.673Z,13.60
2019-02-22T16:22:42.105Z,13.70
2019-02-22T16:25:19.042Z,13.70
2019-02-22T16:27:41.006Z,13.80
2019-02-22T16:30:13.203Z,13.60
2019-02-22T16:32:41.640Z,13.60
2019-02-22T16:35:10.075Z,13.60
2019-02-22T16:37:38.526Z,13.70
2019-02-22T16:40:11.877Z,13.70
2019-02-22T16:42:40.657Z,13.60
2019-02-22T16:45:13.453Z,13.60
2019-02-22T16:47:41.917Z,13.60
2019-02-22T16:50:12.455Z,13.60
2019-02-22T16:52:41.178Z,13.50
2019-02-22T16:55:14.808Z,13.50
2019-02-22T16:57:43.290Z,13.50
2019-02-22T17:00:15.066Z,13.40
2019-02-22T17:02:43.730Z,13.40
2019-02-22T17:05:16.447Z,13.30
2019-02-22T17:07:44.866Z,13.30
2019-02-22T17:10:13.639Z,13.30
2019-02-22T17:12:42.341Z,13.30
2019-02-22T17:15:14.589Z,13.40
2019-02-22T17:17:43.031Z,13.40
2019-02-22T17:20:13.766Z,13.40
2019-02-22T17:22:42.228Z,13.50
2019-02-22T17:25:23.428Z,13.40
2019-02-22T17:27:51.881Z,13.30
2019-02-22T17:30:21.755Z,13.20
2019-02-22T17:32:50.473Z,13.20
2019-02-22T17:35:18.909Z,13.10
2019-02-22T17:37:47.342Z,13.10
2019-02-22T17:40:18.825Z,13.00
2019-02-22T17:42:47.255Z,13.00
2019-02-22T17:45:15.692Z,12.90
2019-02-22T17:47:44.144Z,12.90
2019-02-22T17:50:13.009Z,12.80
2019-02-22T17:52:41.455Z,12.80
2019-02-22T17:55:10.776Z,12.70
2019-02-22T17:57:39.265Z,12.70
2019-02-22T18:00:16.850Z,12.60
2019-02-22T18:02:45.579Z,12.50
2019-02-22T18:05:14.298Z,12.50
2019-02-22T18:07:42.991Z,12.50
2019-02-22T18:10:12.059Z,12.50
2019-02-22T18:12:40.471Z,12.50
2019-02-22T18:15:10.737Z,12.40
2019-02-22T18:17:39.680Z,12.40
2019-02-22T18:20:08.958Z,12.40
2019-02-22T18:22:37.362Z,12.30
2019-02-22T18:25:10.353Z,12.30
2019-02-22T18:27:39.128Z,12.10
2019-02-22T18:30:11.010Z,12.00
2019-02-22T18:32:39.444Z,11.90
2019-02-22T18:35:08.301Z,11.80
2019-02-22T18:37:37.118Z,11.80
2019-02-22T18:40:08.869Z,11.60
2019-02-22T18:42:37.310Z,11.40
2019-02-22T18:45:07.755Z,11.30
2019-02-22T18:47:36.249Z,11.20
2019-02-22T18:50:09.618Z,11.20
2019-02-22T18:52:38.055Z,11.20
2019-02-22T18:55:08.697Z,11.20
2019-02-22T18:57:37.132Z,11.10
2019-02-22T19:00:17.947Z,11.00
2019-02-22T19:02:46.723Z,11.10
2019-02-22T19:05:15.404Z,11.10
2019-02-22T19:07:43.807Z,11.00
2019-02-22T19:10:17.552Z,11.00
2019-02-22T19:12:45.947Z,10.80
2019-02-22T19:15:15.015Z,10.60
2019-02-22T19:17:43.730Z,10.50
2019-02-22T19:20:21.918Z,10.50
2019-02-22T19:22:50.315Z,10.40
2019-02-22T19:25:18.735Z,10.40
2019-02-22T19:27:47.513Z,10.40
2019-02-22T19:30:18.248Z,10.40
2019-02-22T19:32:46.670Z,10.30
2019-02-22T19:35:15.352Z,10.30
2019-02-22T19:37:43.804Z,10.30
2019-02-22T19:40:15.323Z,10.20
2019-02-22T19:42:43.777Z,10.20
2019-02-22T19:45:12.177Z,10.20
2019-02-22T19:47:42.133Z,10.20
2019-02-22T19:50:13.698Z,10.20
2019-02-22T19:52:42.140Z,10.10
2019-02-22T19:55:16.429Z,10.10
2019-02-22T19:57:45.123Z,10.10
2019-02-22T20:00:15.978Z,10.20
2019-02-22T20:02:44.678Z,10.20
2019-02-22T20:05:14.547Z,10.20
2019-02-22T20:07:43.298Z,10.30
2019-02-22T20:10:18.277Z,10.20
2019-02-22T20:12:47.936Z,10.30
2019-02-22T20:15:19.159Z,10.20
2019-02-22T20:17:53.685Z,10.20
2019-02-22T20:20:20.733Z,10.10
2019-02-22T20:22:49.153Z,10.00
2019-02-22T20:25:17.647Z,10.10
2019-02-22T20:27:46.135Z,10.00
2019-02-22T20:30:19.470Z,10.00
2019-02-22T20:32:47.893Z,9.90
2019-02-22T20:35:25.010Z,9.90
2019-02-22T20:37:53.654Z,9.80
2019-02-22T20:40:22.287Z,9.70
2019-02-22T20:42:50.722Z,9.70
2019-02-22T20:45:19.481Z,9.50
2019-02-22T20:47:48.109Z,9.50
2019-02-22T20:50:16.599Z,9.50
2019-02-22T20:52:45.049Z,9.40
2019-02-22T20:55:14.121Z,9.50
2019-02-22T20:57:42.985Z,9.40
2019-02-22T21:00:25.681Z,9.40
2019-02-22T21:02:54.067Z,9.30
2019-02-22T21:05:22.516Z,9.30
2019-02-22T21:07:51.262Z,9.30
2019-02-22T21:10:22.021Z,9.20
2019-02-22T21:12:50.435Z,9.10
2019-02-22T21:15:18.852Z,9.00
2019-02-22T21:17:47.274Z,8.80
2019-02-22T21:20:17.512Z,8.70
2019-02-22T21:22:45.915Z,8.60
2019-02-22T21:25:14.332Z,8.60
2019-02-22T21:27:42.753Z,8.60
2019-02-22T21:30:16.725Z,8.50
2019-02-22T21:32:45.153Z,8.50
2019-02-22T21:35:13.726Z,8.40
2019-02-22T21:37:43.282Z,8.30
2019-02-22T21:40:12.534Z,8.40
2019-02-22T21:42:40.957Z,8.40
2019-02-22T21:45:32.995Z,8.30
2019-02-22T21:48:02.994Z,8.30
2019-02-22T21:50:34.056Z,8.20
2019-02-22T21:53:05.036Z,8.10
2019-02-22T21:55:34.045Z,8.10
2019-02-22T21:58:02.574Z,8.10
2019-02-22T22:00:31.727Z,8.10
2019-02-22T22:03:00.416Z,8.00
2019-02-22T22:05:29.134Z,7.90
2019-02-22T22:07:57.816Z,8.00
2019-02-22T22:10:26.237Z,8.00
2019-02-22T22:12:54.803Z,8.00
2019-02-22T22:15:23.503Z,7.90
2019-02-22T22:17:51.944Z,7.90
2019-02-22T22:20:20.361Z,7.90
2019-02-22T22:22:49.100Z,7.90
2019-02-22T22:25:17.513Z,7.90
2019-02-22T22:27:46.183Z,7.90
2019-02-22T22:30:18.564Z,7.90
2019-02-22T22:32:46.968Z,7.90
2019-02-22T22:35:16.517Z,7.80
2019-02-22T22:37:44.935Z,7.80
2019-02-22T22:40:13.664Z,7.80
2019-02-22T22:42:42.367Z,7.70
2019-02-22T22:45:13.877Z,7.60
2019-02-22T22:47:42.627Z,7.70
2019-02-22T22:50:14.107Z,7.70
2019-02-22T22:52:42.772Z,7.60
2019-02-22T22:55:32.056Z,7.60
2019-02-22T22:58:00.773Z,7.60
2019-02-22T23:00:36.867Z,7.50
2019-02-22T23:03:05.310Z,7.50
2019-02-22T23:05:34.143Z,7.40
2019-02-22T23:08:02.559Z,7.40
2019-02-22T23:10:30.993Z,7.40
2019-02-22T23:12:59.398Z,7.30
2019-02-22T23:15:27.821Z,7.30
2019-02-22T23:17:56.251Z,7.20
2019-02-22T23:20:25.005Z,7.10
2019-02-22T23:22:53.399Z,7.10
2019-02-22T23:25:21.829Z,7.10
2019-02-22T23:27:50.244Z,7.00
2019-02-22T23:30:18.670Z,7.00
2019-02-22T23:32:47.085Z,7.00
2019-02-22T23:35:15.509Z,6.90
2019-02-22T23:37:43.934Z,6.70
2019-02-22T23:40:12.411Z,6.70
2019-02-22T23:42:40.856Z,6.70
2019-02-22T23:45:09.420Z,6.70
2019-02-22T23:47:37.819Z,6.70
2019-02-22T23:50:08.162Z,6.70
2019-02-22T23:52:36.658Z,6.60
2019-02-22T23:55:05.691Z,6.60
2019-02-22T23:57:34.133Z,6.60
